RJSO(METAR)
10/21 04:00
METAR RJSO 201900Z VRB01KT 9999 FEW040 07/07 Q1027 RMK 1CU040 A3034=
戻る
トップページへ戻る
IMOC Co,.Ltd.